sensor_id;sensor_type;location;lat;lon;timestamp;pressure;altitude;pressure_sealevel;temperature;humidity
60055;BME280;45930;53.514;55.904;2023-08-24T00:00:22;-6446.91;;;-149.77;100.00
60055;BME280;45930;53.514;55.904;2023-08-24T00:01:23;-6196.97;;;-149.77;100.00
60055;BME280;45930;53.514;55.904;2023-08-24T00:02:24;-6446.91;;;-149.77;100.00
60055;BME280;45930;53.514;55.904;2023-08-24T00:03:25;-6696.84;;;-149.77;100.00
60055;BME280;45930;53.514;55.904;2023-08-24T00:04:26;-6696.84;;;-149.77;100.00
60055;BME280;45930;53.514;55.904;2023-08-24T00:05:27;-6946.78;;;-149.77;100.00
60055;BME280;45930;53.514;55.904;2023-08-24T00:06:28;-6946.78;;;-149.77;100.00
60055;BME280;45930;53.514;55.904;2023-08-24T00:07:29;-6946.78;;;-149.77;100.00
60055;BME280;45930;53.514;55.904;2023-08-24T00:08:30;-7196.69;;;-149.77;100.00
60055;BME280;45930;53.514;55.904;2023-08-24T00:09:30;-6946.78;;;-149.77;100.00
60055;BME280;45930;53.514;55.904;2023-08-24T00:10:31;-6196.97;;;-149.77;100.00
60055;BME280;45930;53.514;55.904;2023-08-24T00:11:33;-5947.00;;;-149.77;100.00
60055;BME280;45930;53.514;55.904;2023-08-24T00:12:34;-6196.97;;;-149.77;100.00
60055;BME280;45930;53.514;55.904;2023-08-24T00:13:36;-6696.84;;;-149.77;100.00
60055;BME280;45930;53.514;55.904;2023-08-24T00:14:37;-6946.78;;;-149.77;100.00
60055;BME280;45930;53.514;55.904;2023-08-24T00:15:38;-6946.78;;;-149.77;100.00
60055;BME280;45930;53.514;55.904;2023-08-24T00:16:39;-6196.97;;;-149.77;100.00
60055;BME280;45930;53.514;55.904;2023-08-24T00:17:41;-5947.00;;;-149.77;100.00
60055;BME280;45930;53.514;55.904;2023-08-24T00:18:42;-5447.03;;;-149.77;100.00
60055;BME280;45930;53.514;55.904;2023-08-24T00:19:43;-5447.03;;;-149.77;100.00
60055;BME280;45930;53.514;55.904;2023-08-24T00:20:43;-5447.03;;;-149.77;100.00
60055;BME280;45930;53.514;55.904;2023-08-24T00:21:44;-5197.00;;;-149.77;100.00
60055;BME280;45930;53.514;55.904;2023-08-24T00:22:45;-5197.00;;;-149.77;100.00
60055;BME280;45930;53.514;55.904;2023-08-24T00:23:46;-5697.03;;;-149.77;100.00
60055;BME280;45930;53.514;55.904;2023-08-24T00:24:47;-6196.97;;;-149.77;100.00
60055;BME280;45930;53.514;55.904;2023-08-24T00:25:48;-6446.91;;;-149.77;100.00
60055;BME280;45930;53.514;55.904;2023-08-24T00:26:49;-6446.91;;;-149.77;100.00
60055;BME280;45930;53.514;55.904;2023-08-24T00:27:51;-6446.91;;;-149.77;100.00
60055;BME280;45930;53.514;55.904;2023-08-24T00:28:53;-6196.97;;;-149.77;100.00
60055;BME280;45930;53.514;55.904;2023-08-24T00:29:54;-6446.91;;;-149.77;100.00
60055;BME280;45930;53.514;55.904;2023-08-24T00:30:54;-6946.78;;;-149.77;100.00
60055;BME280;45930;53.514;55.904;2023-08-24T00:31:55;-6946.78;;;-149.77;100.00
60055;BME280;45930;53.514;55.904;2023-08-24T00:32:56;-7196.69;;;-149.77;100.00
60055;BME280;45930;53.514;55.904;2023-08-24T00:33:57;-7196.69;;;-149.77;100.00
60055;BME280;45930;53.514;55.904;2023-08-24T00:34:57;-7446.56;;;-149.77;100.00
60055;BME280;45930;53.514;55.904;2023-08-24T00:36:01;-7946.28;;;-149.77;100.00
60055;BME280;45930;53.514;55.904;2023-08-24T00:37:02;-7946.28;;;-149.77;100.00
60055;BME280;45930;53.514;55.904;2023-08-24T00:38:03;-8196.13;;;-149.77;100.00
60055;BME280;45930;53.514;55.904;2023-08-24T00:39:04;-8196.13;;;-149.77;100.00
60055;BME280;45930;53.514;55.904;2023-08-24T00:40:06;-8695.75;;;-149.77;100.00
60055;BME280;45930;53.514;55.904;2023-08-24T00:41:12;-8445.94;;;-149.77;100.00
60055;BME280;45930;53.514;55.904;2023-08-24T00:42:13;-8695.75;;;-149.77;100.00
60055;BME280;45930;53.514;55.904;2023-08-24T00:43:15;-8695.75;;;-149.77;100.00
60055;BME280;45930;53.514;55.904;2023-08-24T00:44:16;-8695.75;;;-149.77;100.00
60055;BME280;45930;53.514;55.904;2023-08-24T00:45:17;-8695.75;;;-149.77;100.00
60055;BME280;45930;53.514;55.904;2023-08-24T00:46:19;-8695.75;;;-149.77;100.00
60055;BME280;45930;53.514;55.904;2023-08-24T00:47:20;-8445.94;;;-149.77;100.00
60055;BME280;45930;53.514;55.904;2023-08-24T00:48:21;-8445.94;;;-149.77;100.00
60055;BME280;45930;53.514;55.904;2023-08-24T00:49:26;-8196.13;;;-149.77;100.00
60055;BME280;45930;53.514;55.904;2023-08-24T00:50:27;-8196.13;;;-149.77;100.00
60055;BME280;45930;53.514;55.904;2023-08-24T00:51:28;-8196.13;;;-149.77;100.00
60055;BME280;45930;53.514;55.904;2023-08-24T00:52:31;-8445.94;;;-149.77;100.00
60055;BME280;45930;53.514;55.904;2023-08-24T00:53:32;-8445.94;;;-149.77;100.00
60055;BME280;45930;53.514;55.904;2023-08-24T00:54:35;-8445.94;;;-149.77;100.00
60055;BME280;45930;53.514;55.904;2023-08-24T00:55:37;-7946.28;;;-149.77;100.00
60055;BME280;45930;53.514;55.904;2023-08-24T00:56:38;-7946.28;;;-149.77;100.00
60055;BME280;45930;53.514;55.904;2023-08-24T00:57:39;-8196.13;;;-149.77;100.00
60055;BME280;45930;53.514;55.904;2023-08-24T00:58:42;-8196.13;;;-149.77;100.00
60055;BME280;45930;53.514;55.904;2023-08-24T00:59:43;-7946.28;;;-149.77;100.00
60055;BME280;45930;53.514;55.904;2023-08-24T01:00:44;-7696.44;;;-149.77;100.00
60055;BME280;45930;53.514;55.904;2023-08-24T01:01:46;-7946.28;;;-149.77;100.00
60055;BME280;45930;53.514;55.904;2023-08-24T01:02:47;-7696.44;;;-149.77;100.00
60055;BME280;45930;53.514;55.904;2023-08-24T01:03:48;-7696.44;;;-149.77;100.00
60055;BME280;45930;53.514;55.904;2023-08-24T01:04:49;-7446.56;;;-149.77;100.00
60055;BME280;45930;53.514;55.904;2023-08-24T01:05:51;-7446.56;;;-149.77;100.00
60055;BME280;45930;53.514;55.904;2023-08-24T01:06:51;-7196.69;;;-149.77;100.00
60055;BME280;45930;53.514;55.904;2023-08-24T01:07:52;-6946.78;;;-149.77;100.00
60055;BME280;45930;53.514;55.904;2023-08-24T01:08:54;-6946.78;;;-149.77;100.00
60055;BME280;45930;53.514;55.904;2023-08-24T01:09:55;-7196.69;;;-149.77;100.00
60055;BME280;45930;53.514;55.904;2023-08-24T01:11:06;-7196.69;;;-149.77;100.00
60055;BME280;45930;53.514;55.904;2023-08-24T01:16:29;-6196.97;;;-149.77;100.00
60055;BME280;45930;53.514;55.904;2023-08-24T01:17:32;-5697.03;;;-149.77;100.00
60055;BME280;45930;53.514;55.904;2023-08-24T01:18:34;-5947.00;;;-149.77;100.00
60055;BME280;45930;53.514;55.904;2023-08-24T01:19:42;-6946.78;;;-149.77;100.00
60055;BME280;45930;53.514;55.904;2023-08-24T01:20:43;-7196.69;;;-149.77;100.00
60055;BME280;45930;53.514;55.904;2023-08-24T01:21:44;-7196.69;;;-149.77;100.00
60055;BME280;45930;53.514;55.904;2023-08-24T01:23:05;-7446.56;;;-149.77;100.00
60055;BME280;45930;53.514;55.904;2023-08-24T01:24:14;-7946.28;;;-149.77;100.00
60055;BME280;45930;53.514;55.904;2023-08-24T01:25:31;-8445.94;;;-149.77;100.00
60055;BME280;45930;53.514;55.904;2023-08-24T01:26:34;-8445.94;;;-149.77;100.00
60055;BME280;45930;53.514;55.904;2023-08-24T01:27:36;-8695.75;;;-149.77;100.00
60055;BME280;45930;53.514;55.904;2023-08-24T01:28:37;-8945.53;;;-149.77;100.00
60055;BME280;45930;53.514;55.904;2023-08-24T01:29:39;-9195.28;;;-149.77;100.00
60055;BME280;45930;53.514;55.904;2023-08-24T01:30:43;-9195.28;;;-149.77;100.00
60055;BME280;45930;53.514;55.904;2023-08-24T01:31:44;-9195.28;;;-149.77;100.00
60055;BME280;45930;53.514;55.904;2023-08-24T01:32:48;-9195.28;;;-149.77;100.00
60055;BME280;45930;53.514;55.904;2023-08-24T01:33:48;-9694.78;;;-149.77;100.00
60055;BME280;45930;53.514;55.904;2023-08-24T01:34:49;-9445.06;;;-149.77;100.00
60055;BME280;45930;53.514;55.904;2023-08-24T01:35:50;-9195.28;;;-149.77;100.00
60055;BME280;45930;53.514;55.904;2023-08-24T01:36:51;-8945.53;;;-149.77;100.00
60055;BME280;45930;53.514;55.904;2023-08-24T01:37:52;-8945.53;;;-149.77;100.00
60055;BME280;45930;53.514;55.904;2023-08-24T01:38:59;-9195.28;;;-149.77;100.00
60055;BME280;45930;53.514;55.904;2023-08-24T01:40:16;-9195.28;;;-149.77;100.00
60055;BME280;45930;53.514;55.904;2023-08-24T01:41:30;-9195.28;;;-149.77;100.00
60055;BME280;45930;53.514;55.904;2023-08-24T01:42:58;-8945.53;;;-149.77;100.00
60055;BME280;45930;53.514;55.904;2023-08-24T01:44:01;-8945.53;;;-149.77;100.00
60055;BME280;45930;53.514;55.904;2023-08-24T01:45:05;-8945.53;;;-149.77;100.00
60055;BME280;45930;53.514;55.904;2023-08-24T01:46:09;-8945.53;;;-149.77;100.00
60055;BME280;45930;53.514;55.904;2023-08-24T01:47:12;-8695.75;;;-149.77;100.00
60055;BME280;45930;53.514;55.904;2023-08-24T01:48:13;-7946.28;;;-149.77;100.00
60055;BME280;45930;53.514;55.904;2023-08-24T01:49:17;-7696.44;;;-149.77;100.00
60055;BME280;45930;53.514;55.904;2023-08-24T01:50:19;-7196.69;;;-149.77;100.00
60055;BME280;45930;53.514;55.904;2023-08-24T01:51:20;-7196.69;;;-149.77;100.00
60055;BME280;45930;53.514;55.904;2023-08-24T01:52:21;-6696.84;;;-149.77;100.00
60055;BME280;45930;53.514;55.904;2023-08-24T01:53:23;-6696.84;;;-149.77;100.00
60055;BME280;45930;53.514;55.904;2023-08-24T01:54:25;-6196.97;;;-149.77;100.00
60055;BME280;45930;53.514;55.904;2023-08-24T01:55:26;-5697.03;;;-149.77;100.00
60055;BME280;45930;53.514;55.904;2023-08-24T01:56:26;-5697.03;;;-149.77;100.00
60055;BME280;45930;53.514;55.904;2023-08-24T01:57:27;-5447.03;;;-149.77;100.00
60055;BME280;45930;53.514;55.904;2023-08-24T01:58:28;-4946.97;;;-149.77;100.00
60055;BME280;45930;53.514;55.904;2023-08-24T01:59:29;-4946.97;;;-149.77;100.00
60055;BME280;45930;53.514;55.904;2023-08-24T02:00:30;-4946.97;;;-149.77;100.00
60055;BME280;45930;53.514;55.904;2023-08-24T02:01:31;-4946.97;;;-149.77;100.00
60055;BME280;45930;53.514;55.904;2023-08-24T02:02:31;-5697.03;;;-149.77;100.00
60055;BME280;45930;53.514;55.904;2023-08-24T02:03:33;-5947.00;;;-149.77;100.00
60055;BME280;45930;53.514;55.904;2023-08-24T02:04:34;-5697.03;;;-149.77;100.00
60055;BME280;45930;53.514;55.904;2023-08-24T02:05:35;-5947.00;;;-149.77;100.00
60055;BME280;45930;53.514;55.904;2023-08-24T02:06:36;-6196.97;;;-149.77;100.00
60055;BME280;45930;53.514;55.904;2023-08-24T02:07:38;-5947.00;;;-149.77;100.00
60055;BME280;45930;53.514;55.904;2023-08-24T02:08:39;-5197.00;;;-149.77;100.00
60055;BME280;45930;53.514;55.904;2023-08-24T02:09:40;-5447.03;;;-149.77;100.00
60055;BME280;45930;53.514;55.904;2023-08-24T02:10:41;-5697.03;;;-149.77;100.00
60055;BME280;45930;53.514;55.904;2023-08-24T02:11:42;-5697.03;;;-149.77;100.00
60055;BME280;45930;53.514;55.904;2023-08-24T02:12:43;-5697.03;;;-149.77;100.00
60055;BME280;45930;53.514;55.904;2023-08-24T02:13:44;-5697.03;;;-149.77;100.00
60055;BME280;45930;53.514;55.904;2023-08-24T02:14:44;-5697.03;;;-149.77;100.00
60055;BME280;45930;53.514;55.904;2023-08-24T02:16:07;-5197.00;;;-149.77;100.00
60055;BME280;45930;53.514;55.904;2023-08-24T02:17:09;-4946.97;;;-149.77;100.00
60055;BME280;45930;53.514;55.904;2023-08-24T02:18:09;-4696.94;;;-149.77;100.00
60055;BME280;45930;53.514;55.904;2023-08-24T02:19:10;-4946.97;;;-149.77;100.00
60055;BME280;45930;53.514;55.904;2023-08-24T02:20:11;-4946.97;;;-149.77;100.00
60055;BME280;45930;53.514;55.904;2023-08-24T02:21:12;-5197.00;;;-149.77;100.00
60055;BME280;45930;53.514;55.904;2023-08-24T02:22:14;-4946.97;;;-149.77;100.00
60055;BME280;45930;53.514;55.904;2023-08-24T02:23:15;-5197.00;;;-149.77;100.00
60055;BME280;45930;53.514;55.904;2023-08-24T02:24:16;-5447.03;;;-149.77;100.00
60055;BME280;45930;53.514;55.904;2023-08-24T02:25:16;-5697.03;;;-149.77;100.00
60055;BME280;45930;53.514;55.904;2023-08-24T02:26:17;-5947.00;;;-149.77;100.00
60055;BME280;45930;53.514;55.904;2023-08-24T02:27:18;-5697.03;;;-149.77;100.00
60055;BME280;45930;53.514;55.904;2023-08-24T02:28:19;-5197.00;;;-149.77;100.00
60055;BME280;45930;53.514;55.904;2023-08-24T02:29:20;-4696.94;;;-149.77;100.00
60055;BME280;45930;53.514;55.904;2023-08-24T02:30:21;-3696.59;;;-149.77;100.00
60055;BME280;45930;53.514;55.904;2023-08-24T02:31:22;-2445.78;;;-149.77;100.00
60055;BME280;45930;53.514;55.904;2023-08-24T02:32:25;-1695.09;;;-149.77;99.89
60055;BME280;45930;53.514;55.904;2023-08-24T02:33:26;-944.28;;;-149.77;99.41
60055;BME280;45930;53.514;55.904;2023-08-24T02:34:27;57.06;;;-149.77;98.84
60055;BME280;45930;53.514;55.904;2023-08-24T02:35:28;-193.31;;;-149.77;98.86
60055;BME280;45930;53.514;55.904;2023-08-24T02:36:29;-443.63;;;-149.77;99.29
60055;BME280;45930;53.514;55.904;2023-08-24T02:37:33;-1194.56;;;-149.77;99.58
60055;BME280;45930;53.514;55.904;2023-08-24T02:38:34;-944.28;;;-149.77;99.58
60055;BME280;45930;53.514;55.904;2023-08-24T02:39:35;-693.97;;;-149.77;99.23
60055;BME280;45930;53.514;55.904;2023-08-24T02:40:36;-944.28;;;-149.77;99.65
60055;BME280;45930;53.514;55.904;2023-08-24T02:41:37;-1194.56;;;-149.77;99.61
60055;BME280;45930;53.514;55.904;2023-08-24T02:42:37;-193.31;;;-149.77;98.93
60055;BME280;45930;53.514;55.904;2023-08-24T02:43:38;-693.97;;;-149.77;99.26
60055;BME280;45930;53.514;55.904;2023-08-24T02:44:39;-944.28;;;-149.77;99.45
60055;BME280;45930;53.514;55.904;2023-08-24T02:45:41;-944.28;;;-149.77;99.32
60055;BME280;45930;53.514;55.904;2023-08-24T02:46:44;-693.97;;;-149.77;99.20
60055;BME280;45930;53.514;55.904;2023-08-24T02:47:45;57.06;;;-149.77;98.65
60055;BME280;45930;53.514;55.904;2023-08-24T02:48:45;557.81;;;-149.77;98.25
60055;BME280;45930;53.514;55.904;2023-08-24T02:49:46;1309.09;;;-149.77;97.85
60055;BME280;45930;53.514;55.904;2023-08-24T02:50:47;1559.53;;;-149.77;97.68
60055;BME280;45930;53.514;55.904;2023-08-24T02:51:48;2311.00;;;-149.77;97.30
60055;BME280;45930;53.514;55.904;2023-08-24T02:52:49;2812.06;;;-149.77;96.97
60055;BME280;45930;53.514;55.904;2023-08-24T02:53:52;3062.59;;;-149.77;96.85
60055;BME280;45930;53.514;55.904;2023-08-24T02:54:53;3313.16;;;-149.77;96.71
60055;BME280;45930;53.514;55.904;2023-08-24T02:55:54;3313.16;;;-149.77;96.81
60055;BME280;45930;53.514;55.904;2023-08-24T02:56:55;2060.50;;;-149.77;97.61
60055;BME280;45930;53.514;55.904;2023-08-24T02:57:56;2060.50;;;-149.77;97.54
60055;BME280;45930;53.514;55.904;2023-08-24T02:58:57;2812.06;;;-149.77;97.01
60055;BME280;45930;53.514;55.904;2023-08-24T02:59:58;2812.06;;;-149.77;97.19
60055;BME280;45930;53.514;55.904;2023-08-24T03:00:58;2060.50;;;-149.77;97.54
60055;BME280;45930;53.514;55.904;2023-08-24T03:01:59;2561.53;;;-149.77;97.19
60055;BME280;45930;53.514;55.904;2023-08-24T03:03:00;2561.53;;;-149.77;97.21
60055;BME280;45930;53.514;55.904;2023-08-24T03:04:01;2812.06;;;-149.77;97.09
60055;BME280;45930;53.514;55.904;2023-08-24T03:05:02;2812.06;;;-149.77;96.99
60055;BME280;45930;53.514;55.904;2023-08-24T03:06:05;2311.00;;;-149.77;97.39
60055;BME280;45930;53.514;55.904;2023-08-24T03:07:06;2060.50;;;-149.77;97.36
60055;BME280;45930;53.514;55.904;2023-08-24T03:08:08;3062.59;;;-149.77;96.64
60055;BME280;45930;53.514;55.904;2023-08-24T03:09:09;3814.34;;;-149.77;96.16
60055;BME280;45930;53.514;55.904;2023-08-24T03:10:10;3563.75;;;-149.77;96.47
60055;BME280;45930;53.514;55.904;2023-08-24T03:11:11;4816.91;;;-149.77;95.49
60055;BME280;45930;53.514;55.904;2023-08-24T03:12:11;5819.75;;;-149.77;95.09
60055;BME280;45930;53.514;55.904;2023-08-24T03:13:13;6321.25;;;-149.77;94.66
60055;BME280;45930;53.514;55.904;2023-08-24T03:14:14;7575.31;;;-149.77;93.90
60055;BME280;45930;53.514;55.904;2023-08-24T03:15:15;8829.78;;;-149.77;93.20
60055;BME280;45930;53.514;55.904;2023-08-24T03:16:16;9331.69;;;-149.77;92.96
60055;BME280;45930;53.514;55.904;2023-08-24T03:17:17;10084.66;;;-149.77;92.37
60055;BME280;45930;53.514;55.904;2023-08-24T03:18:18;12344.44;;;-149.77;91.05
60055;BME280;45930;53.514;55.904;2023-08-24T03:19:19;14856.88;;;-149.77;89.94
60055;BME280;45930;53.514;55.904;2023-08-24T03:20:20;17622.44;;;-149.77;88.73
60055;BME280;45930;53.514;55.904;2023-08-24T03:21:21;19383.34;;;-149.77;87.99
60055;BME280;45930;53.514;55.904;2023-08-24T03:22:22;22152.13;;;-149.77;87.03
60055;BME280;45930;53.514;55.904;2023-08-24T03:23:23;23915.09;;;-149.77;86.43
60055;BME280;45930;53.514;55.904;2023-08-24T03:24:24;26435.00;;;-149.77;85.29
60055;BME280;45930;53.514;55.904;2023-08-24T03:25:24;30848.78;;;-149.77;83.64
60055;BME280;45930;53.514;55.904;2023-08-24T03:26:26;34553.06;;;-149.77;82.55
60055;BME280;45930;53.514;55.904;2023-08-24T03:27:27;35780.72;;;-149.77;82.46
60055;BME280;45930;53.514;55.904;2023-08-24T03:28:28;33400.78;;;-149.77;83.71
60055;BME280;45930;53.514;55.904;2023-08-24T03:29:29;31629.59;;;-149.77;84.23
60055;BME280;45930;53.514;55.904;2023-08-24T03:30:30;30722.59;;;-149.77;84.50
60055;BME280;45930;53.514;55.904;2023-08-24T03:31:30;31444.22;;;-149.77;84.17
60055;BME280;45930;53.514;55.904;2023-08-24T03:32:31;31355.50;;;-149.77;84.36
60055;BME280;45930;53.514;55.904;2023-08-24T03:33:32;32919.44;;;-149.77;83.57
60055;BME280;45930;53.514;55.904;2023-08-24T03:34:35;35243.84;;;-149.77;82.66
60055;BME280;45930;53.514;55.904;2023-08-24T03:35:35;35824.16;;;-149.77;82.61
60055;BME280;45930;53.514;55.904;2023-08-24T03:36:36;36396.66;;;-149.77;82.42
60055;BME280;45930;53.514;55.904;2023-08-24T03:37:38;37931.03;;;-149.77;81.53
60055;BME280;45930;53.514;55.904;2023-08-24T03:38:39;39799.91;;;-149.77;80.48
60055;BME280;45930;53.514;55.904;2023-08-24T03:39:41;40220.84;;;-149.77;80.32
60055;BME280;45930;53.514;55.904;2023-08-24T03:40:41;41128.03;;;-149.77;80.02
60055;BME280;45930;53.514;55.904;2023-08-24T03:41:42;41817.97;;;-149.77;79.44
60055;BME280;45930;53.514;55.904;2023-08-24T03:42:43;43283.25;;;-149.77;78.28
60055;BME280;45930;53.514;55.904;2023-08-24T03:43:44;43924.13;;;-149.77;77.72
60055;BME280;45930;53.514;55.904;2023-08-24T03:44:45;44315.78;;;-149.77;77.35
60055;BME280;45930;53.514;55.904;2023-08-24T03:45:45;45202.19;;;-149.77;76.36
60055;BME280;45930;53.514;55.904;2023-08-24T03:46:46;46130.31;;;-149.77;75.05
60055;BME280;45930;53.514;55.904;2023-08-24T03:47:47;46678.59;;;-149.77;74.44
60055;BME280;45930;53.514;55.904;2023-08-24T03:48:48;46763.72;;;-149.77;74.32
60055;BME280;45930;53.514;55.904;2023-08-24T03:49:49;46437.13;;;-149.77;75.26
60055;BME280;45930;53.514;55.904;2023-08-24T03:50:54;46063.03;;;-149.77;75.71
60055;BME280;45930;53.514;55.904;2023-08-24T03:51:55;46728.09;;;-149.77;74.63
60055;BME280;45930;53.514;55.904;2023-08-24T03:52:55;47029.00;;;-149.77;74.20
60055;BME280;45930;53.514;55.904;2023-08-24T03:53:57;47274.47;;;-149.77;73.63
60055;BME280;45930;53.514;55.904;2023-08-24T03:54:58;47351.69;;;-149.77;73.66
60055;BME280;45930;53.514;55.904;2023-08-24T03:55:58;47339.81;;;-149.77;73.64
60055;BME280;45930;53.514;55.904;2023-08-24T03:56:59;47209.16;;;-149.77;74.02
60055;BME280;45930;53.514;55.904;2023-08-24T03:58:00;47015.13;;;-149.77;74.50
60055;BME280;45930;53.514;55.904;2023-08-24T03:59:01;46977.53;;;-149.77;74.51
60055;BME280;45930;53.514;55.904;2023-08-24T04:00:02;46949.81;;;-149.77;74.53
60055;BME280;45930;53.514;55.904;2023-08-24T04:01:10;46795.41;;;-149.77;74.90
60055;BME280;45930;53.514;55.904;2023-08-24T04:02:11;47036.91;;;-149.77;74.23
60055;BME280;45930;53.514;55.904;2023-08-24T04:03:12;47268.53;;;-149.77;73.73
60055;BME280;45930;53.514;55.904;2023-08-24T04:04:13;47607.09;;;-149.77;72.92
60055;BME280;45930;53.514;55.904;2023-08-24T04:05:14;47811.03;;;-149.77;72.62
60055;BME280;45930;53.514;55.904;2023-08-24T04:06:17;47981.34;;;-149.77;72.03
60055;BME280;45930;53.514;55.904;2023-08-24T04:07:20;48448.69;;;-149.77;70.56
60055;BME280;45930;53.514;55.904;2023-08-24T04:08:20;48395.22;;;-149.77;71.15
60055;BME280;45930;53.514;55.904;2023-08-24T04:09:21;48599.19;;;-149.77;70.18
60055;BME280;45930;53.514;55.904;2023-08-24T04:10:22;48735.84;;;-149.77;69.74
60055;BME280;45930;53.514;55.904;2023-08-24T04:11:23;48971.53;;;-149.77;69.06
60055;BME280;45930;53.514;55.904;2023-08-24T04:12:23;49221.09;;;-149.77;67.65
60055;BME280;45930;53.514;55.904;2023-08-24T04:13:24;49363.72;;;-149.77;67.11
60055;BME280;45930;53.514;55.904;2023-08-24T04:14:25;49429.09;;;-149.77;66.86
60055;BME280;45930;53.514;55.904;2023-08-24T04:15:26;49783.69;;;-149.77;63.70
60055;BME280;45930;53.514;55.904;2023-08-24T04:16:27;49900.56;;;-149.77;63.04
60055;BME280;45930;53.514;55.904;2023-08-24T04:17:27;49890.66;;;-149.77;63.09
60055;BME280;45930;53.514;55.904;2023-08-24T04:18:28;49971.88;;;-149.77;62.20
60055;BME280;45930;53.514;55.904;2023-08-24T04:19:29;49997.63;;;-149.77;61.90
60055;BME280;45930;53.514;55.904;2023-08-24T04:20:30;50013.50;;;-149.77;61.42
60055;BME280;45930;53.514;55.904;2023-08-24T04:21:31;50025.38;;;-149.77;61.54
60055;BME280;45930;53.514;55.904;2023-08-24T04:22:32;50017.44;;;-149.77;60.99
60055;BME280;45930;53.514;55.904;2023-08-24T04:23:32;50049.16;;;-149.77;61.48
60055;BME280;45930;53.514;55.904;2023-08-24T04:24:33;50033.31;;;-149.77;61.38
60055;BME280;45930;53.514;55.904;2023-08-24T04:25:34;50070.94;;;-149.77;60.75
60055;BME280;45930;53.514;55.904;2023-08-24T04:26:35;50047.16;;;-149.77;60.01
60055;BME280;45930;53.514;55.904;2023-08-24T04:27:37;50059.06;;;-149.77;58.69
60055;BME280;45930;53.514;55.904;2023-08-24T04:28:37;50070.94;;;-149.77;57.63
60055;BME280;45930;53.514;55.904;2023-08-24T04:29:38;50104.63;;;-149.77;56.99
60055;BME280;45930;53.514;55.904;2023-08-24T04:30:39;49956.03;;;-149.77;54.59
60055;BME280;45930;53.514;55.904;2023-08-24T04:31:40;49983.78;;;-149.77;54.54
60055;BME280;45930;53.514;55.904;2023-08-24T04:32:42;49944.16;;;-149.77;53.69
60055;BME280;45930;53.514;55.904;2023-08-24T04:33:43;49853.03;;;-149.77;52.77
60055;BME280;45930;53.514;55.904;2023-08-24T04:34:44;49817.34;;;-149.77;52.43
60055;BME280;45930;53.514;55.904;2023-08-24T04:35:47;49833.22;;;-149.77;52.27
60055;BME280;45930;53.514;55.904;2023-08-24T04:36:48;49787.66;;;-149.77;51.61
60055;BME280;45930;53.514;55.904;2023-08-24T04:37:49;49759.91;;;-149.77;51.11
60055;BME280;45930;53.514;55.904;2023-08-24T04:38:50;49750.00;;;-149.77;51.22
60055;BME280;45930;53.514;55.904;2023-08-24T04:39:51;49753.97;;;-149.77;51.41
60055;BME280;45930;53.514;55.904;2023-08-24T04:40:54;49750.00;;;-149.77;51.11
60055;BME280;45930;53.514;55.904;2023-08-24T04:41:55;49750.00;;;-149.77;51.33
60055;BME280;45930;53.514;55.904;2023-08-24T04:42:56;49813.41;;;-149.77;52.07
60055;BME280;45930;53.514;55.904;2023-08-24T04:43:57;49817.34;;;-149.77;51.83
60055;BME280;45930;53.514;55.904;2023-08-24T04:44:57;49757.94;;;-149.77;50.83
60055;BME280;45930;53.514;55.904;2023-08-24T04:45:58;49710.38;;;-149.77;50.43
60055;BME280;45930;53.514;55.904;2023-08-24T04:46:59;49696.53;;;-149.77;50.51
60055;BME280;45930;53.514;55.904;2023-08-24T04:48:00;49736.13;;;-149.77;50.59
60055;BME280;45930;53.514;55.904;2023-08-24T04:49:01;49730.19;;;-149.77;50.63
60055;BME280;45930;53.514;55.904;2023-08-24T04:50:04;49650.94;;;-149.77;49.01
60055;BME280;45930;53.514;55.904;2023-08-24T04:51:05;49619.25;;;-149.77;48.96
60055;BME280;45930;53.514;55.904;2023-08-24T04:52:06;49650.94;;;-149.77;49.25
60055;BME280;45930;53.514;55.904;2023-08-24T04:53:07;49553.88;;;-149.77;47.79
60055;BME280;45930;53.514;55.904;2023-08-24T04:54:07;49520.22;;;-149.77;47.06
60055;BME280;45930;53.514;55.904;2023-08-24T04:55:10;49502.38;;;-149.77;46.81
60055;BME280;45930;53.514;55.904;2023-08-24T04:56:11;49466.72;;;-149.77;46.43
60055;BME280;45930;53.514;55.904;2023-08-24T04:57:11;49500.41;;;-149.77;46.71
60055;BME280;45930;53.514;55.904;2023-08-24T04:58:13;49524.16;;;-149.77;46.98
60055;BME280;45930;53.514;55.904;2023-08-24T04:59:14;49508.31;;;-149.77;46.92
60055;BME280;45930;53.514;55.904;2023-08-24T05:00:16;49512.28;;;-149.77;46.91
60055;BME280;45930;53.514;55.904;2023-08-24T05:01:16;49514.28;;;-149.77;47.21
60055;BME280;45930;53.514;55.904;2023-08-24T05:02:17;49516.25;;;-149.77;47.51
60055;BME280;45930;53.514;55.904;2023-08-24T05:03:18;49542.00;;;-149.77;47.79
60055;BME280;45930;53.514;55.904;2023-08-24T05:04:20;49540.03;;;-149.77;47.84
60055;BME280;45930;53.514;55.904;2023-08-24T05:05:21;49583.59;;;-149.77;48.17
60055;BME280;45930;53.514;55.904;2023-08-24T05:06:21;49559.81;;;-149.77;47.70
60055;BME280;45930;53.514;55.904;2023-08-24T05:07:22;49524.16;;;-149.77;47.41
60055;BME280;45930;53.514;55.904;2023-08-24T05:08:23;49478.63;;;-149.77;46.34
60055;BME280;45930;53.514;55.904;2023-08-24T05:09:24;49488.50;;;-149.77;46.41
60055;BME280;45930;53.514;55.904;2023-08-24T05:10:25;49460.78;;;-149.77;46.19
60055;BME280;45930;53.514;55.904;2023-08-24T05:11:27;49490.50;;;-149.77;46.65
60055;BME280;45930;53.514;55.904;2023-08-24T05:12:31;49530.13;;;-149.77;46.98
60055;BME280;45930;53.514;55.904;2023-08-24T05:13:34;49506.34;;;-149.77;47.15
60055;BME280;45930;53.514;55.904;2023-08-24T05:14:35;49543.97;;;-149.77;47.34
60055;BME280;45930;53.514;55.904;2023-08-24T05:15:35;49506.34;;;-149.77;46.75
60055;BME280;45930;53.514;55.904;2023-08-24T05:16:36;49472.66;;;-149.77;46.44
60055;BME280;45930;53.514;55.904;2023-08-24T05:17:37;49472.66;;;-149.77;46.51